Time;durP1;ratioP1;P1;durP2;ratioP2;P2;SDS_P1;SDS_P2;PMS_P1;PMS_P2;Temp;Humidity;BMP_temperature;BMP_pressure;BME280_temperature;BME280_humidity;BME280_pressure;Samples;Min_cycle;Max_cycle;Signal;HPM_P1;HPM_P2
2022/08/22 00:01:32;;;;;;;6.38;2.50;;;;;;;14.16;100.00;98548.91;5033025;28;20045;-59
2022/08/22 00:04:35;;;;;;;6.95;3.17;;;;;;;14.17;100.00;98551.41;5028237;28;20067;-59
2022/08/22 00:07:20;;;;;;;4.65;2.83;;;;;;;14.17;100.00;98543.22;5034407;28;20556;-59
2022/08/22 00:10:15;;;;;;;6.13;3.05;;;;;;;14.22;100.00;98547.94;5030655;28;20492;-59
2022/08/22 00:12:57;;;;;;;5.80;2.78;;;;;;;14.13;100.00;98552.91;5030924;28;20029;-59
2022/08/22 00:15:31;;;;;;;5.50;2.78;;;;;;;14.28;100.00;98546.19;5034562;28;20028;-59
2022/08/22 00:18:12;;;;;;;5.50;2.70;;;;;;;14.21;100.00;98551.75;5028983;28;20489;-59
2022/08/22 00:20:43;;;;;;;6.35;2.92;;;;;;;14.26;100.00;98549.16;5026941;28;20539;-59
2022/08/22 00:23:09;;;;;;;6.75;2.63;;;;;;;14.18;100.00;98553.03;5038886;28;21514;-59
2022/08/22 00:26:07;;;;;;;6.03;2.95;;;;;;;14.22;100.00;98550.66;5025349;28;20170;-57
2022/08/22 00:28:56;;;;;;;10.98;3.08;;;;;;;14.29;100.00;98543.25;5033703;28;20078;-58
2022/08/22 00:31:33;;;;;;;5.33;2.60;;;;;;;14.21;100.00;98552.56;5031636;28;20385;-57
2022/08/22 00:34:35;;;;;;;5.65;3.00;;;;;;;14.17;100.00;98550.53;5031702;28;20028;-57
2022/08/22 00:37:29;;;;;;;4.68;2.28;;;;;;;14.06;100.00;98546.72;4989468;28;20033;-57
2022/08/22 00:40:11;;;;;;;5.82;2.90;;;;;;;14.01;100.00;98552.84;5031924;28;20060;-57
2022/08/22 00:42:58;;;;;;;8.82;3.30;;;;;;;13.92;100.00;98551.53;5026747;28;20035;-57
2022/08/22 00:45:48;;;;;;;6.38;3.30;;;;;;;13.88;100.00;98549.50;5024235;28;20021;-58
2022/08/22 00:48:47;;;;;;;8.77;3.10;;;;;;;13.80;100.00;98551.47;5026791;28;20394;-58
2022/08/22 00:51:38;;;;;;;3.95;2.75;;;;;;;13.78;100.00;98545.47;5029059;28;20492;-58
2022/08/22 00:54:32;;;;;;;8.18;3.20;;;;;;;13.84;100.00;98553.75;5029797;28;20550;-58
2022/08/22 00:57:30;;;;;;;12.02;3.35;;;;;;;13.78;100.00;98553.63;5046214;28;20048;-58
2022/08/22 01:00:22;;;;;;;12.10;4.03;;;;;;;13.77;100.00;98553.84;5035509;28;20036;-58
2022/08/22 01:03:06;;;;;;;6.32;3.38;;;;;;;13.66;100.00;98550.00;5032334;28;20120;-58
2022/08/22 01:06:00;;;;;;;5.75;3.10;;;;;;;13.52;100.00;98560.25;5033868;28;20025;-58
2022/08/22 01:09:04;;;;;;;6.10;3.08;;;;;;;13.44;100.00;98563.28;5034674;28;20459;-59
2022/08/22 01:11:51;;;;;;;7.00;3.40;;;;;;;13.43;100.00;98560.75;5029100;28;20057;-58
2022/08/22 01:14:26;;;;;;;13.45;3.15;;;;;;;13.44;100.00;98559.69;5031662;28;22542;-58
2022/08/22 01:16:59;;;;;;;9.02;3.40;;;;;;;13.49;100.00;98557.97;5037058;28;20033;-58
2022/08/22 01:19:33;;;;;;;8.48;2.78;;;;;;;13.47;100.00;98560.09;5036341;28;20036;-58
2022/08/22 01:22:13;;;;;;;6.05;3.08;;;;;;;13.35;100.00;98562.72;5037106;28;20040;-58
2022/08/22 01:27:37;;;;;;;;;;;;;;;13.22;100.00;98554.69;5052952;28;20031;-58
2022/08/22 01:30:51;;;;;;;8.40;3.30;;;;;;;13.26;100.00;98557.81;5037041;28;19913;-58
2022/08/22 01:33:36;;;;;;;5.05;3.10;;;;;;;13.35;100.00;98562.72;5026926;28;20029;-58
2022/08/22 01:36:09;;;;;;;5.57;3.17;;;;;;;13.23;100.00;98559.09;5036455;28;20025;-58
2022/08/22 01:39:03;;;;;;;5.93;2.85;;;;;;;13.12;100.00;98557.94;5038848;28;20051;-59
2022/08/22 01:41:32;;;;;;;5.80;3.28;;;;;;;13.21;100.00;98557.66;5033099;28;20147;-58
2022/08/22 01:44:09;;;;;;;5.20;3.17;;;;;;;13.24;100.00;98551.78;5034864;28;20037;-58
2022/08/22 01:46:41;;;;;;;9.23;3.25;;;;;;;13.13;100.00;98550.66;5034541;28;20021;-58
2022/08/22 01:49:24;;;;;;;7.07;3.53;;;;;;;13.00;100.00;98557.03;5033309;28;20068;-57
2022/08/22 01:51:57;;;;;;;5.95;3.22;;;;;;;12.89;100.00;98555.91;5043098;28;20029;-58
2022/08/22 01:54:58;;;;;;;6.95;3.53;;;;;;;12.78;100.00;98556.63;5033392;28;20029;-58
2022/08/22 01:57:25;;;;;;;8.32;3.60;;;;;;;12.76;100.00;98564.19;5026933;28;20370;-58
2022/08/22 01:59:58;;;;;;;8.57;3.38;;;;;;;12.79;100.00;98550.16;5035397;28;20021;-58
2022/08/22 02:02:47;;;;;;;6.22;3.25;;;;;;;12.93;100.00;98551.66;5036243;28;20079;-58
2022/08/22 02:05:32;;;;;;;8.70;3.42;;;;;;;13.01;100.00;98549.72;5037595;28;20083;-58
2022/08/22 02:08:55;;;;;;;4.93;3.30;;;;;;;13.02;100.00;98552.22;5015201;28;20028;-58
2022/08/22 02:11:37;;;;;;;6.50;3.00;;;;;;;12.99;100.00;98546.41;5038231;22;20049;-70
2022/08/22 02:14:16;;;;;;;4.60;2.85;;;;;;;12.94;100.00;98552.50;5043026;28;20044;-70
2022/08/22 02:16:45;;;;;;;5.75;2.80;;;;;;;12.80;100.00;98546.38;5046022;28;20094;-70
2022/08/22 02:19:25;;;;;;;4.80;3.10;;;;;;;12.72;100.00;98550.19;5050173;28;20116;-70
2022/08/22 02:21:58;;;;;;;8.43;3.50;;;;;;;12.56;100.00;98549.97;5034270;28;20056;-71
2022/08/22 02:24:50;;;;;;;5.45;3.00;;;;;;;12.30;100.00;98537.44;5030306;28;20025;-70
2022/08/22 02:27:24;;;;;;;6.20;3.45;;;;;;;12.19;100.00;98544.41;5029269;28;20473;-71
2022/08/22 02:30:13;;;;;;;5.35;3.42;;;;;;;12.17;100.00;98546.50;5024348;28;20557;-70
2022/08/22 02:32:38;;;;;;;5.90;3.35;;;;;;;12.13;100.00;98543.41;5032028;28;20433;-70
2022/08/22 02:35:15;;;;;;;5.63;3.70;;;;;;;12.05;100.00;98522.81;5027786;28;20044;-70
2022/08/22 02:38:18;;;;;;;7.88;3.55;;;;;;;12.07;100.00;98530.72;5030171;28;20037;-70
2022/08/22 02:40:52;;;;;;;5.80;3.45;;;;;;;12.13;100.00;98529.84;5022240;28;20471;-70
2022/08/22 02:43:26;;;;;;;7.05;3.47;;;;;;;12.22;100.00;98533.94;5030151;28;20487;-70
2022/08/22 02:46:10;;;;;;;9.15;3.20;;;;;;;12.15;100.00;98524.19;5043974;28;20124;-71
2022/08/22 02:48:57;;;;;;;6.22;3.10;;;;;;;12.21;100.00;98526.03;5021830;28;20037;-71
2022/08/22 02:51:35;;;;;;;6.45;2.97;;;;;;;12.19;100.00;98531.69;5029354;28;20128;-70
2022/08/22 02:54:12;;;;;;;7.93;4.07;;;;;;;12.20;100.00;98527.91;5024918;28;20033;-71
2022/08/22 02:56:49;;;;;;;9.18;3.75;;;;;;;12.17;100.00;98520.22;5024449;28;20070;-70
2022/08/22 02:59:23;;;;;;;8.25;3.35;;;;;;;12.11;100.00;98531.94;5023944;28;20161;-70
2022/08/22 03:01:49;;;;;;;7.38;3.53;;;;;;;12.10;100.00;98530.28;5035556;28;20102;-70
2022/08/22 03:04:44;;;;;;;5.60;3.33;;;;;;;12.09;100.00;98533.22;5026931;28;20026;-70
2022/08/22 03:07:18;;;;;;;7.55;3.55;;;;;;;12.05;100.00;98532.81;5024852;28;20108;-71
2022/08/22 03:09:56;;;;;;;8.93;4.00;;;;;;;12.04;100.00;98542.00;5013723;28;20029;-71
2022/08/22 03:12:31;;;;;;;8.55;3.67;;;;;;;12.18;100.00;98549.00;5029201;28;20033;-70
2022/08/22 03:15:16;;;;;;;10.32;4.20;;;;;;;12.09;100.00;98549.50;5027953;28;20475;-70
2022/08/22 03:17:48;;;;;;;8.40;3.80;;;;;;;12.04;100.00;98548.25;5029250;28;20487;-70
2022/08/22 03:20:21;;;;;;;6.63;3.88;;;;;;;11.95;100.00;98540.63;5026441;28;20144;-70
2022/08/22 03:22:50;;;;;;;12.13;4.20;;;;;;;12.04;100.00;98542.00;5030691;28;20487;-70
2022/08/22 03:25:33;;;;;;;7.43;3.92;;;;;;;12.03;100.00;98545.78;5029967;28;20021;-70
2022/08/22 03:28:13;;;;;;;5.97;3.90;;;;;;;12.03;100.00;98535.75;5038611;28;20026;-70
2022/08/22 03:30:43;;;;;;;6.90;3.58;;;;;;;11.99;100.00;98534.53;5045205;28;20049;-71
2022/08/22 03:33:22;;;;;;;7.47;4.32;;;;;;;11.98;100.00;98537.47;5049824;28;20036;-72
2022/08/22 03:35:48;;;;;;;8.13;3.70;;;;;;;12.01;100.00;98545.16;5034005;28;20056;-70
2022/08/22 03:38:28;;;;;;;9.43;4.18;;;;;;;11.87;100.00;98539.00;5046122;28;20021;-70
2022/08/22 03:41:09;;;;;;;7.78;3.72;;;;;;;11.89;100.00;98539.59;5049080;28;20104;-70
2022/08/22 03:44:12;;;;;;;6.05;3.95;;;;;;;11.78;100.00;98537.56;5035536;28;20026;-70
2022/08/22 03:46:52;;;;;;;6.95;3.80;;;;;;;11.78;100.00;98538.38;5032962;28;20051;-71
2022/08/22 03:49:26;;;;;;;4.82;3.60;;;;;;;11.75;100.00;98540.69;5034734;28;20033;-73
2022/08/22 03:52:28;;;;;;;7.28;3.88;;;;;;;11.71;100.00;98534.91;5022335;28;20433;-68
2022/08/22 03:55:20;;;;;;;7.03;4.05;;;;;;;11.69;100.00;98547.00;5024992;28;20037;-72
2022/08/22 03:58:11;;;;;;;10.65;4.15;;;;;;;11.71;100.00;98548.44;4998371;28;20056;-72
2022/08/22 04:01:01;;;;;;;8.25;4.45;;;;;;;11.76;100.00;98550.47;5028175;28;20430;-71
2022/08/22 04:03:45;;;;;;;9.43;4.00;;;;;;;11.73;100.00;98545.50;5010523;28;20021;-72
2022/08/22 04:06:35;;;;;;;8.95;3.42;;;;;;;11.80;100.00;98549.84;5020295;28;20112;-69
2022/08/22 04:09:26;;;;;;;8.27;4.10;;;;;;;11.87;100.00;98540.84;5007722;28;20054;-72
2022/08/22 04:12:21;;;;;;;7.60;4.30;;;;;;;12.11;100.00;98550.94;5022718;28;20033;-72
2022/08/22 04:15:16;;;;;;;6.40;3.63;;;;;;;12.03;100.00;98543.06;5029224;28;20618;-68
2022/08/22 04:18:06;;;;;;;4.85;3.40;;;;;;;12.13;100.00;98561.53;5029254;28;20429;-71
2022/08/22 04:21:02;;;;;;;6.68;3.42;;;;;;;12.02;100.00;98557.66;5033576;28;20029;-72
2022/08/22 04:23:49;;;;;;;11.25;4.32;;;;;;;11.81;100.00;98561.50;5032918;28;20024;-72
2022/08/22 04:26:45;;;;;;;10.18;4.32;;;;;;;11.76;100.00;98550.47;5028353;28;20021;-72
2022/08/22 04:29:40;;;;;;;12.27;4.65;;;;;;;11.66;100.00;98560.97;5007960;28;20026;-73
2022/08/22 04:32:13;;;;;;;9.88;3.83;;;;;;;11.70;100.00;98554.91;5023265;28;20113;-72
2022/08/22 04:34:49;;;;;;;8.40;4.35;;;;;;;11.71;100.00;98563.84;5031568;28;20032;-68
2022/08/22 04:37:22;;;;;;;5.82;3.75;;;;;;;11.69;100.00;98563.25;5024197;28;20033;-71
2022/08/22 04:39:56;;;;;;;8.57;4.00;;;;;;;11.64;100.00;98569.31;5023447;28;20034;-69
2022/08/22 04:42:30;;;;;;;7.22;3.88;;;;;;;11.65;100.00;98572.84;5030884;28;20025;-69
2022/08/22 04:45:00;;;;;;;9.30;3.75;;;;;;;11.57;100.00;98569.34;5004741;28;20495;-70
2022/08/22 04:47:44;;;;;;;7.72;3.95;;;;;;;11.55;100.00;98562.47;5012372;28;20034;-72
2022/08/22 04:50:16;;;;;;;8.75;4.57;;;;;;;11.68;100.00;98575.13;5034651;28;20373;-74
2022/08/22 04:53:19;;;;;;;10.13;4.35;;;;;;;11.78;100.00;98575.50;5040740;28;20049;-69
2022/08/22 04:56:11;;;;;;;8.32;4.05;;;;;;;11.77;100.00;98563.00;5023623;28;20029;-73
2022/08/22 04:58:59;;;;;;;8.95;3.72;;;;;;;11.93;100.00;98575.25;5033686;28;20057;-74
2022/08/22 05:01:45;;;;;;;6.95;3.67;;;;;;;12.05;100.00;98581.63;5015246;28;20403;-74
2022/08/22 05:04:18;;;;;;;7.35;3.40;;;;;;;12.22;100.00;98581.94;5011988;28;20522;-73
2022/08/22 05:06:51;;;;;;;8.43;3.63;;;;;;;12.34;100.00;98603.75;5026806;28;20040;-72
2022/08/22 05:09:22;;;;;;;12.52;4.07;;;;;;;12.36;100.00;98583.50;5041017;28;20017;-72
2022/08/22 05:11:52;;;;;;;5.45;3.45;;;;;;;12.41;100.00;98590.97;5012411;28;20034;-72
2022/08/22 05:14:26;;;;;;;10.38;3.75;;;;;;;12.41;100.00;98583.66;5035599;28;20483;-72
2022/08/22 05:16:56;;;;;;;9.10;4.10;;;;;;;12.66;100.00;98589.09;5031926;28;20033;-72
2022/08/22 05:19:29;;;;;;;7.47;3.85;;;;;;;12.72;100.00;98582.78;5014760;28;20550;-72
2022/08/22 05:21:55;;;;;;;5.75;3.78;;;;;;;12.65;100.00;98575.75;5025352;28;20037;-71
2022/08/22 05:24:27;;;;;;;7.72;3.83;;;;;;;12.87;100.00;98585.16;5038528;28;20036;-71
2022/08/22 05:26:56;;;;;;;6.30;3.88;;;;;;;13.00;100.00;98588.81;5034133;28;20033;-72
2022/08/22 05:29:27;;;;;;;7.25;3.58;;;;;;;13.11;100.00;98593.50;5029446;28;20151;-72
2022/08/22 05:32:04;;;;;;;10.20;4.00;;;;;;;13.13;100.00;98578.63;5029226;28;20026;-71
2022/08/22 05:34:37;;;;;;;6.03;3.70;;;;;;;13.43;100.00;98590.66;5028995;28;20037;-70
2022/08/22 05:37:13;;;;;;;10.55;3.50;;;;;;;13.67;100.00;98578.84;5027432;28;20513;-70
2022/08/22 05:39:45;;;;;;;5.70;3.22;;;;;;;13.93;100.00;98587.72;5024434;28;20053;-71
2022/08/22 05:42:16;;;;;;;8.13;3.47;;;;;;;14.15;100.00;98596.22;5036538;28;20032;-72
2022/08/22 05:44:42;;;;;;;10.50;3.50;;;;;;;14.35;100.00;98594.00;5017004;28;20060;-71
2022/08/22 05:47:35;;;;;;;9.70;4.18;;;;;;;14.46;100.00;98586.94;5035902;28;20221;-71
2022/08/22 05:50:03;;;;;;;7.10;3.75;;;;;;;14.70;100.00;98587.84;5033051;28;20112;-72
2022/08/22 05:52:53;;;;;;;7.53;3.70;;;;;;;14.92;100.00;98585.34;5035749;28;20032;-73
2022/08/22 05:55:27;;;;;;;5.97;3.40;;;;;;;15.37;96.83;98582.00;5035517;28;20483;-71
2022/08/22 05:58:23;;;;;;;7.30;3.63;;;;;;;15.98;89.11;98583.28;5029499;28;20065;-72
2022/08/22 06:01:00;;;;;;;7.25;3.70;;;;;;;16.69;80.22;98574.69;4998957;28;20128;-72
2022/08/22 06:03:32;;;;;;;5.30;3.10;;;;;;;18.30;68.68;98580.09;5030053;28;20029;-75
2022/08/22 06:06:08;;;;;;;6.20;2.90;;;;;;;20.49;58.84;98574.97;5031148;28;20104;-72
2022/08/22 06:08:38;;;;;;;5.95;3.30;;;;;;;21.84;54.53;98588.25;5029046;28;20033;-69
2022/08/22 06:11:37;;;;;;;5.80;2.85;;;;;;;23.32;49.28;98569.84;5011989;28;20025;-71
2022/08/22 06:14:16;;;;;;;6.75;3.38;;;;;;;24.78;45.77;98560.94;5027031;28;20045;-71
2022/08/22 06:16:55;;;;;;;5.28;2.97;;;;;;;24.37;45.56;98570.72;5033703;28;20036;-70
2022/08/22 06:19:22;;;;;;;7.13;3.30;;;;;;;25.08;44.52;98573.44;5027133;28;20394;-71
2022/08/22 06:21:50;;;;;;;5.72;2.97;;;;;;;25.95;42.90;98575.38;5032948;28;20021;-73
2022/08/22 06:24:22;;;;;;;5.95;3.05;;;;;;;26.23;41.44;98570.59;5031776;28;20029;-72
2022/08/22 06:26:50;;;;;;;6.15;2.92;;;;;;;26.86;40.74;98568.84;5031659;28;20116;-72
2022/08/22 06:29:41;;;;;;;8.57;3.28;;;;;;;26.08;42.08;98575.66;5030038;28;20028;-72
2022/08/22 06:32:15;;;;;;;6.88;3.20;;;;;;;27.46;39.25;98570.34;5014411;28;20047;-75
2022/08/22 06:34:44;;;;;;;4.05;2.90;;;;;;;27.38;39.58;98561.94;5004008;28;20044;-72
2022/08/22 06:37:22;;;;;;;6.30;3.35;;;;;;;27.07;39.99;98568.31;5031310;28;20029;-73
2022/08/22 06:39:52;;;;;;;4.63;2.80;;;;;;;28.31;37.95;98569.25;5027236;28;20085;-72
2022/08/22 06:42:24;;;;;;;5.03;2.83;;;;;;;30.58;34.75;98568.16;5033315;28;20055;-72
2022/08/22 06:44:56;;;;;;;5.53;2.88;;;;;;;30.24;34.65;98568.44;5031162;28;20079;-73
2022/08/22 06:47:26;;;;;;;7.93;3.20;;;;;;;31.33;34.09;98569.22;5028090;28;20032;-74
2022/08/22 06:49:59;;;;;;;6.07;3.15;;;;;;;31.05;34.09;98558.69;5015611;28;20339;-74
2022/08/22 06:52:28;;;;;;;7.38;2.70;;;;;;;31.22;34.50;98558.47;5030120;28;20490;-74
2022/08/22 06:55:01;;;;;;;8.23;3.30;;;;;;;31.43;33.92;98561.22;5029926;28;20033;-70
2022/08/22 06:57:34;;;;;;;7.10;2.90;;;;;;;31.81;33.30;98573.28;5030851;28;20040;-71
2022/08/22 07:00:20;;;;;;;5.40;2.85;;;;;;;33.18;31.67;98579.81;5027337;28;20037;-71
2022/08/22 07:02:53;;;;;;;6.30;2.65;;;;;;;34.05;30.48;98589.22;5027297;28;20037;-67
2022/08/22 07:05:27;;;;;;;9.77;2.75;;;;;;;34.58;29.81;98591.66;5027275;28;20104;-66
2022/08/22 07:07:53;;;;;;;5.72;3.05;;;;;;;33.95;30.51;98594.59;5027685;28;20377;-67
2022/08/22 07:10:20;;;;;;;5.55;2.97;;;;;;;33.90;30.48;98590.06;5030111;28;20522;-66
2022/08/22 07:12:50;;;;;;;5.60;2.75;;;;;;;33.56;30.90;98598.06;5030118;28;20181;-69
2022/08/22 07:15:35;;;;;;;8.52;3.00;;;;;;;32.66;32.17;98583.53;5007107;28;20029;-71
2022/08/22 07:18:08;;;;;;;4.07;3.00;;;;;;;32.63;32.37;98598.25;5021210;28;20060;-74
2022/08/22 07:20:44;;;;;;;3.55;2.42;;;;;;;33.44;31.37;98588.91;5028170;28;20462;-76
2022/08/22 07:23:35;;;;;;;8.15;2.97;;;;;;;34.15;29.44;98601.94;5010587;28;20103;-74
2022/08/22 07:26:38;;;;;;;7.78;2.83;;;;;;;34.47;28.75;98596.22;5016902;28;20033;-74
2022/08/22 07:29:22;;;;;;;8.13;2.88;;;;;;;34.14;29.02;98588.25;5025881;28;20107;-73
2022/08/22 07:32:11;;;;;;;6.95;2.95;;;;;;;32.81;30.88;98593.16;5029790;28;20017;-74
2022/08/22 07:35:02;;;;;;;10.80;2.55;;;;;;;32.63;31.37;98589.84;5037330;28;20052;-73
2022/08/22 07:37:58;;;;;;;10.05;2.63;;;;;;;34.10;29.79;98593.78;5024610;28;20037;-68
2022/08/22 07:40:31;;;;;;;10.10;3.22;;;;;;;34.23;29.01;98597.31;5017946;28;20025;-67
2022/08/22 07:43:03;;;;;;;8.48;3.10;;;;;;;33.84;29.91;98583.13;5020759;28;20040;-70
2022/08/22 07:45:57;;;;;;;17.05;3.20;;;;;;;33.97;29.47;98583.81;5029362;28;20105;-74
2022/08/22 07:48:38;;;;;;;13.75;3.33;;;;;;;33.65;29.95;98588.66;5021272;28;20099;-76
2022/08/22 07:51:12;;;;;;;8.68;2.58;;;;;;;35.59;27.68;98591.69;5031114;28;20051;-74
2022/08/22 07:53:57;;;;;;;9.00;2.70;;;;;;;35.27;27.52;98579.84;5027182;28;20029;-74
2022/08/22 07:56:32;;;;;;;8.73;2.53;;;;;;;35.24;28.25;98581.41;5034608;28;20025;-69
2022/08/22 07:59:05;;;;;;;6.55;2.70;;;;;;;34.87;28.26;98579.06;5029120;28;20080;-70
2022/08/22 08:01:30;;;;;;;6.53;2.45;;;;;;;35.66;27.77;98588.16;5024246;28;20028;-73
2022/08/22 08:04:00;;;;;;;6.22;2.53;;;;;;;35.59;27.74;98585.25;5024620;28;20025;-73
2022/08/22 08:06:27;;;;;;;4.43;2.10;;;;;;;35.96;26.71;98586.25;5011537;28;20149;-75
2022/08/22 08:08:54;;;;;;;5.07;2.40;;;;;;;35.18;27.28;98590.50;5031214;28;20079;-73
2022/08/22 08:11:22;;;;;;;6.57;2.03;;;;;;;36.14;26.92;98588.56;5045111;22;20107;-67
2022/08/22 08:14:06;;;;;;;5.35;2.50;;;;;;;36.87;25.92;98591.19;5039294;28;20037;-70
2022/08/22 08:16:42;;;;;;;9.40;2.58;;;;;;;36.62;26.06;98597.31;5045244;28;20465;-68
2022/08/22 08:19:11;;;;;;;8.02;2.33;;;;;;;37.39;25.57;98589.34;5019655;28;20043;-70
2022/08/22 08:21:45;;;;;;;5.18;2.55;;;;;;;37.34;25.86;98587.69;5053216;28;20048;-70
2022/08/22 08:24:16;;;;;;;3.38;1.98;;;;;;;36.70;25.49;98595.38;5048434;28;20103;-70
2022/08/22 08:29:32;;;;;;;6.13;2.03;;;;;;;36.30;26.41;98580.75;5040641;28;20099;-69
2022/08/22 08:32:00;;;;;;;6.13;2.20;;;;;;;36.85;26.16;98595.19;5040230;28;20032;-68
2022/08/22 08:34:28;;;;;;;14.70;2.53;;;;;;;37.22;25.15;98593.63;5043274;28;20449;-69
2022/08/22 08:36:59;;;;;;;4.13;2.00;;;;;;;37.45;24.73;98593.44;5032162;28;20041;-68
2022/08/22 08:39:36;;;;;;;6.32;2.00;;;;;;;37.44;25.57;98598.28;5033175;28;20518;-67
2022/08/22 08:42:26;;;;;;;3.72;2.03;;;;;;;37.28;25.14;98595.72;5033358;28;20053;-68
2022/08/22 08:45:02;;;;;;;6.43;2.20;;;;;;;36.14;26.60;98592.19;5022979;28;20516;-68
2022/08/22 08:47:46;;;;;;;5.45;2.45;;;;;;;37.50;25.42;98588.28;5034378;28;20479;-68
2022/08/22 08:50:17;;;;;;;3.75;2.15;;;;;;;38.70;24.26;98593.56;5038151;28;20030;-66
2022/08/22 08:53:01;;;;;;;4.60;1.98;;;;;;;38.61;24.74;98593.16;5033645;28;20509;-65
2022/08/22 08:55:32;;;;;;;4.00;1.90;;;;;;;38.79;24.64;98591.19;5040063;28;20037;-66
2022/08/22 08:58:01;;;;;;;4.57;2.17;;;;;;;38.85;24.06;98580.31;5028903;28;20029;-66
2022/08/22 09:00:51;;;;;;;4.82;1.95;;;;;;;39.28;23.30;98578.44;5029470;28;20084;-66
2022/08/22 09:03:26;;;;;;;5.30;2.40;;;;;;;39.42;23.16;98581.31;5031593;28;20033;-65
2022/08/22 09:06:16;;;;;;;3.33;2.05;;;;;;;39.93;22.65;98585.00;5019178;28;20028;-65
2022/08/22 09:08:48;;;;;;;3.20;2.20;;;;;;;39.52;23.86;98581.75;5027056;28;20036;-66
2022/08/22 09:11:56;;;;;;;2.17;1.92;;;;;;;38.74;24.66;98577.44;5032302;28;20429;-67
2022/08/22 09:14:44;;;;;;;2.65;2.22;;;;;;;37.87;24.46;98563.97;5030973;28;20025;-65
2022/08/22 09:17:24;;;;;;;3.40;2.60;;;;;;;36.51;26.57;98574.59;5034718;28;20037;-65
2022/08/22 09:20:21;;;;;;;3.80;2.80;;;;;;;36.38;26.67;98571.19;5036693;28;20036;-63
2022/08/22 09:23:02;;;;;;;3.65;2.50;;;;;;;36.65;26.59;98568.34;5034820;28;20041;-66
2022/08/22 09:25:39;;;;;;;3.80;2.65;;;;;;;35.98;26.87;98552.91;5034742;28;20025;-66
2022/08/22 09:28:29;;;;;;;4.60;2.58;;;;;;;35.70;28.08;98580.59;5034781;28;20474;-66
2022/08/22 09:31:00;;;;;;;2.65;2.08;;;;;;;37.38;25.49;98574.41;5034589;28;20091;-66
2022/08/22 09:33:54;;;;;;;3.55;2.38;;;;;;;36.66;25.97;98572.81;5037143;28;20045;-65
2022/08/22 09:36:33;;;;;;;4.35;2.40;;;;;;;36.29;27.04;98570.69;5034301;28;20029;-66
2022/08/22 09:39:22;;;;;;;3.72;2.33;;;;;;;36.13;27.36;98572.84;5038799;28;20114;-65
2022/08/22 09:42:06;;;;;;;4.28;2.58;;;;;;;36.35;26.58;98569.16;5036126;28;20057;-66
2022/08/22 09:45:04;;;;;;;5.68;2.15;;;;;;;35.20;28.38;98574.06;5035542;28;20021;-66
2022/08/22 09:47:35;;;;;;;5.70;2.28;;;;;;;36.73;26.96;98570.06;5042678;28;20029;-69
2022/08/22 09:50:29;;;;;;;6.68;2.58;;;;;;;38.43;24.98;98565.59;5037667;28;20048;-70
2022/08/22 09:53:07;;;;;;;4.38;2.42;;;;;;;37.80;25.17;98567.53;5036657;28;20071;-70
2022/08/22 09:55:38;;;;;;;;;;;;;;;37.57;25.97;98561.31;5041554;28;20382;-71
2022/08/22 09:58:22;;;;;;;2.45;2.10;;;;;;;39.15;23.89;98566.69;5038070;28;19912;-73
2022/08/22 10:01:24;;;;;;;2.70;2.35;;;;;;;39.41;23.75;98574.03;5019490;28;20052;-70
2022/08/22 10:04:17;;;;;;;3.28;2.15;;;;;;;39.21;24.02;98572.75;5023675;28;20478;-71
2022/08/22 10:07:03;;;;;;;2.63;2.05;;;;;;;39.47;23.89;98567.97;5031152;28;20037;-66
2022/08/22 10:09:48;;;;;;;3.33;2.08;;;;;;;39.35;24.20;98564.31;5035553;28;20710;-72
2022/08/22 10:12:25;;;;;;;3.08;2.15;;;;;;;36.76;25.81;98552.41;5048062;28;20028;-68
2022/08/22 10:15:03;;;;;;;2.88;2.40;;;;;;;35.58;27.47;98561.94;5051028;28;20521;-68
2022/08/22 10:17:41;;;;;;;3.28;2.50;;;;;;;34.89;28.92;98562.59;5036647;28;20149;-67
2022/08/22 10:20:16;;;;;;;4.00;2.70;;;;;;;36.55;27.06;98563.38;5039239;28;20394;-67
2022/08/22 10:23:05;;;;;;;7.25;2.17;;;;;;;36.45;26.74;98549.97;5039121;28;20120;-66
2022/08/22 10:25:50;;;;;;;4.20;2.03;;;;;;;39.00;24.33;98559.38;5020104;28;20110;-67
2022/08/22 10:28:20;;;;;;;2.92;2.17;;;;;;;39.72;23.24;98551.81;5030732;28;20025;-67
2022/08/22 10:30:46;;;;;;;2.78;1.83;;;;;;;41.56;21.32;98544.25;5030798;28;20123;-67
2022/08/22 10:33:29;;;;;;;2.47;2.00;;;;;;;39.97;22.18;98542.50;5040509;28;20467;-68
2022/08/22 10:36:26;;;;;;;2.72;2.17;;;;;;;41.08;21.58;98531.56;5041491;28;20059;-68
2022/08/22 10:38:54;;;;;;;3.13;1.90;;;;;;;39.33;22.86;98535.63;5034258;28;20523;-68
2022/08/22 10:42:04;;;;;;;3.20;1.90;;;;;;;38.04;24.02;98522.94;5040336;28;20037;-66
2022/08/22 10:44:42;;;;;;;4.18;2.15;;;;;;;36.86;25.63;98522.69;5021521;28;20421;-67
2022/08/22 10:47:15;;;;;;;2.80;1.98;;;;;;;37.78;24.64;98519.13;5032782;28;20025;-66
2022/08/22 10:49:53;;;;;;;2.55;1.77;;;;;;;35.99;25.37;98509.47;5038412;28;20036;-67
2022/08/22 10:52:24;;;;;;;;;;;;;;;33.44;28.41;98525.19;5045547;28;20052;-68
2022/08/22 10:55:08;;;;;;;4.65;2.20;;;;;;;31.74;29.97;98519.88;5039928;28;20418;-67
2022/08/22 10:57:50;;;;;;;3.38;2.40;;;;;;;31.42;31.42;98522.44;5039194;28;20020;-68
2022/08/22 11:00:42;;;;;;;3.15;2.20;;;;;;;31.93;31.55;98511.72;5038649;28;20021;-68
2022/08/22 11:03:23;;;;;;;5.30;2.25;;;;;;;31.88;30.94;98514.72;5010633;28;20275;-70
2022/08/22 11:05:51;;;;;;;4.55;2.10;;;;;;;33.15;30.19;98501.22;5039734;28;20058;-67
2022/08/22 11:08:40;;;;;;;6.05;2.22;;;;;;;33.67;28.59;98499.31;5033464;28;20029;-65
2022/08/22 11:11:06;;;;;;;3.70;2.20;;;;;;;33.39;30.02;98492.63;5033434;28;20032;-66
2022/08/22 11:14:08;;;;;;;3.37;2.17;;;;;;;32.62;29.85;98495.78;5044234;28;20133;-65
2022/08/22 11:16:46;;;;;;;2.92;1.80;;;;;;;32.22;30.57;98488.19;5024186;28;20283;-68
2022/08/22 11:19:20;;;;;;;5.22;2.30;;;;;;;31.66;30.62;98497.25;5042620;28;20486;-68
2022/08/22 11:21:45;;;;;;;2.63;2.10;;;;;;;30.50;32.56;98504.03;5020122;28;20056;-68
2022/08/22 11:24:41;;;;;;;3.53;2.00;;;;;;;30.42;33.01;98502.94;5045811;28;20513;-66
2022/08/22 11:27:30;;;;;;;4.43;2.30;;;;;;;30.09;33.25;98503.66;5029977;28;20030;-66
2022/08/22 11:30:00;;;;;;;3.63;2.08;;;;;;;30.10;33.57;98501.69;5032516;28;20479;-66
2022/08/22 11:32:39;;;;;;;4.07;2.33;;;;;;;29.79;33.59;98496.47;5046247;28;20064;-67
2022/08/22 11:35:10;;;;;;;;;;;;;;;29.81;33.60;98494.19;5050491;28;20025;-66
2022/08/22 11:37:43;;;;;;;4.45;2.25;;;;;;;29.96;33.22;98485.22;5045976;28;20396;-67
2022/08/22 11:40:31;;;;;;;3.20;1.90;;;;;;;29.91;32.98;98494.59;5050515;28;20071;-67
2022/08/22 11:43:27;;;;;;;2.97;2.25;;;;;;;31.09;31.78;98488.94;5038229;28;20082;-68
2022/08/22 11:45:57;;;;;;;4.25;2.08;;;;;;;34.05;29.08;98485.34;5027984;28;20033;-67
2022/08/22 11:48:43;;;;;;;5.97;2.17;;;;;;;34.01;28.41;98483.69;5050228;28;20535;-67
2022/08/22 11:51:43;;;;;;;4.20;2.00;;;;;;;32.56;30.21;98468.38;5053054;28;20462;-69
2022/08/22 11:54:23;;;;;;;3.63;2.10;;;;;;;32.08;30.35;98483.00;5054480;28;20025;-68
2022/08/22 11:56:59;;;;;;;4.63;2.25;;;;;;;31.77;31.25;98477.22;5047853;28;20110;-66
2022/08/22 11:59:52;;;;;;;3.55;2.17;;;;;;;32.26;30.67;98479.91;5043590;28;20484;-70
2022/08/22 12:02:25;;;;;;;3.50;2.10;;;;;;;33.05;29.53;98468.13;5044554;28;20025;-70
2022/08/22 12:04:56;;;;;;;3.13;2.00;;;;;;;32.77;29.89;98465.34;5039802;28;20029;-71
2022/08/22 12:07:29;;;;;;;3.00;1.90;;;;;;;31.27;30.40;98454.03;5040633;28;20090;-71
2022/08/22 12:10:01;;;;;;;2.70;2.00;;;;;;;30.99;31.78;98477.06;5041297;28;20032;-71
2022/08/22 12:12:35;;;;;;;2.53;2.00;;;;;;;30.62;31.90;98464.94;5023581;28;20382;-67
2022/08/22 12:15:23;;;;;;;3.85;1.88;;;;;;;30.34;33.18;98473.13;5022643;28;20050;-68
2022/08/22 12:18:03;;;;;;;5.57;2.13;;;;;;;30.55;33.08;98473.91;5043017;28;20064;-68
2022/08/22 12:20:47;;;;;;;2.00;1.80;;;;;;;30.69;32.85;98475.56;5050104;28;20028;-67
2022/08/22 12:23:43;;;;;;;3.22;2.10;;;;;;;30.58;32.70;98459.25;5022577;28;20067;-68
2022/08/22 12:26:14;;;;;;;2.92;1.83;;;;;;;30.76;32.87;98461.88;5052777;28;20025;-68
2022/08/22 12:29:11;;;;;;;4.40;2.40;;;;;;;30.63;32.80;98457.38;5033366;28;20036;-70
2022/08/22 12:31:57;;;;;;;2.70;1.77;;;;;;;30.93;32.68;98464.47;5034710;28;20066;-69
2022/08/22 12:35:01;;;;;;;3.10;1.95;;;;;;;30.92;32.18;98459.25;5022152;28;20028;-70
2022/08/22 12:37:54;;;;;;;4.72;1.92;;;;;;;31.17;31.52;98460.88;5034960;28;20051;-70